»·PEaware :: GTI33 KPUB-KROW

GTI33 :: KPUB-KROW

FLIGHT INFORMATION

Flight Status: Arrived
Operator:
Atlas Air
More flights by this operator :: More flights under this callsign
Pilot: Anonymous 36068 (36068)
Aircraft: BEECH AIRCRAFT PREMIER
(PRM1)
More flights by this aircraft type
Origin: KPUB Pueblo Meml
United States
Destination: KROW Roswell Industrial
United States
More flights between these airports :: More routes between these airports
Route: PUB V611 FTI CNX V83 CME
File this flight plan on PilotEdge
Remarks:
Altitude:
(Current/Filed)
31,000ft
Speed:
(Current/Filed)
400kts
Departed: 17-Sep-21 01:36 PM
Arrived: 17-Sep-21 02:38 PM
Distance/Time
Traveled:
299nm/1:01
Distance/Time
To Go:
Arrived

Flight Plot

Page will automatically refresh every two minutes.

Flight plan parsing failed; only flown route is shown


Map Options




Map Legend


Flown Route
Filed Route
Departure Airport
Arrival Airport
Navaid (VOR, NDB)
Fix

Horizontal Profiles

Position Reports

Time Latitude Longitude Heading Altitude Ground
Speed
17-Sep-21 13:05 38.283638 -104.498935 178 4650ft 0kts
17-Sep-21 13:06 38.283638 -104.498935 178 4650ft 0kts
17-Sep-21 13:07 38.283638 -104.498935 178 4650ft 0kts
17-Sep-21 13:08 38.283638 -104.498935 178 4650ft 0kts
17-Sep-21 13:09 38.283638 -104.498935 178 4650ft 0kts
17-Sep-21 13:10 38.283638 -104.498935 178 4650ft 0kts
17-Sep-21 13:11 38.283638 -104.498935 178 4650ft 0kts
17-Sep-21 13:12 38.283638 -104.498935 178 4650ft 0kts
17-Sep-21 13:13 38.283638 -104.498935 178 4650ft 0kts
17-Sep-21 13:14 38.283638 -104.498935 178 4650ft 0kts
17-Sep-21 13:15 38.283638 -104.498935 178 4650ft 0kts
17-Sep-21 13:16 38.283638 -104.498935 178 4650ft 0kts
17-Sep-21 13:18 38.283638 -104.498935 178 4650ft 0kts
17-Sep-21 13:19 38.283638 -104.498935 178 4650ft 0kts
17-Sep-21 13:20 38.283638 -104.498935 178 4650ft 0kts
17-Sep-21 13:21 38.283638 -104.498935 178 4650ft 0kts
17-Sep-21 13:22 38.283638 -104.498935 178 4650ft 0kts
17-Sep-21 13:23 38.283638 -104.498935 178 4650ft 0kts
17-Sep-21 13:24 38.283638 -104.498935 178 4650ft 0kts
17-Sep-21 13:25 38.283638 -104.498935 178 4650ft 0kts
17-Sep-21 13:26 38.283627 -104.498934 180 4650ft 1kts
17-Sep-21 13:27 38.283730 -104.499646 295 4651ft 0kts
17-Sep-21 13:28 38.284361 -104.500725 323 4655ft 8kts
17-Sep-21 13:29 38.285256 -104.501699 282 4660ft 6kts
17-Sep-21 13:30 38.285510 -104.505589 274 4661ft 19kts
17-Sep-21 13:31 38.286133 -104.509872 359 4667ft 0kts
17-Sep-21 13:32 38.286133 -104.509872 359 4667ft 0kts
17-Sep-21 13:33 38.286133 -104.509872 359 4667ft 0kts
17-Sep-21 13:34 38.287175 -104.509597 72 4669ft 8kts
17-Sep-21 13:35 38.287653 -104.491530 87 4668ft 157kts
17-Sep-21 13:36 38.281388 -104.425192 140 6735ft 230kts
17-Sep-21 13:37 38.219152 -104.447730 195 8970ft 275kts
17-Sep-21 13:38 38.145069 -104.466929 192 12011ft 278kts
17-Sep-21 13:39 38.067863 -104.486191 193 14503ft 290kts
17-Sep-21 13:40 37.987330 -104.506299 194 16773ft 301kts
17-Sep-21 13:41 37.903981 -104.527068 195 18839ft 311kts
17-Sep-21 13:42 37.818161 -104.548410 195 20709ft 319kts
17-Sep-21 13:43 37.730354 -104.570159 196 22408ft 326kts
17-Sep-21 13:45 37.638157 -104.593105 196 23116ft 359kts
17-Sep-21 13:46 37.534536 -104.618659 195 23069ft 398kts
17-Sep-21 13:47 37.424349 -104.645614 195 24052ft 396kts
17-Sep-21 13:48 37.319938 -104.671176 196 26035ft 372kts
17-Sep-21 13:49 37.221685 -104.695212 197 28030ft 349kts
17-Sep-21 13:50 37.129798 -104.717487 198 30019ft 326kts
17-Sep-21 13:51 37.040131 -104.739636 197 31014ft 333kts
17-Sep-21 13:52 36.944555 -104.762949 196 31063ft 367kts
17-Sep-21 13:53 36.840343 -104.788060 195 31056ft 394kts
17-Sep-21 13:54 36.730260 -104.814631 195 30919ft 418kts
17-Sep-21 13:55 36.612648 -104.842943 195 29950ft 440kts
17-Sep-21 13:56 36.491405 -104.872297 197 29079ft 444kts
17-Sep-21 13:57 36.374281 -104.909325 198 29052ft 427kts
17-Sep-21 13:58 36.261359 -104.945264 199 29054ft 416kts
17-Sep-21 13:59 36.150068 -104.980574 199 29054ft 409kts
17-Sep-21 14:00 36.040997 -105.015075 199 29054ft 404kts
17-Sep-21 14:01 35.932643 -105.049274 199 29056ft 400kts
17-Sep-21 14:02 35.825878 -105.082847 199 29053ft 396kts
17-Sep-21 14:03 35.719236 -105.116284 199 29053ft 393kts
17-Sep-21 14:04 35.615164 -105.153497 204 29054ft 388kts
17-Sep-21 14:05 35.513730 -105.196937 204 29053ft 386kts
17-Sep-21 14:06 35.412614 -105.239952 204 29052ft 385kts
17-Sep-21 14:06 35.328319 -105.275712 204 29052ft 385kts
17-Sep-21 14:08 35.210916 -105.325368 204 29052ft 384kts
17-Sep-21 14:09 35.109958 -105.367959 204 29052ft 384kts
17-Sep-21 14:10 35.008417 -105.410780 203 28456ft 399kts
17-Sep-21 14:11 34.899643 -105.456494 202 26969ft 428kts
17-Sep-21 14:11 34.804368 -105.496252 201 25719ft 441kts
17-Sep-21 14:12 34.688449 -105.544603 201 24203ft 441kts
17-Sep-21 14:13 34.575684 -105.591486 201 24050ft 419kts
17-Sep-21 14:15 34.448978 -105.644098 201 23243ft 411kts
17-Sep-21 14:16 34.339420 -105.645398 149 21761ft 416kts
17-Sep-21 14:16 34.264991 -105.571826 139 20532ft 413kts
17-Sep-21 14:17 34.178540 -105.481918 139 19037ft 409kts
17-Sep-21 14:18 34.095992 -105.396413 139 17017ft 378kts
17-Sep-21 14:19 34.016036 -105.313807 139 15027ft 379kts
17-Sep-21 14:20 33.937490 -105.232864 139 13023ft 353kts
17-Sep-21 14:21 33.867349 -105.160656 140 10987ft 315kts
17-Sep-21 14:22 33.801726 -105.093338 140 9170ft 305kts
17-Sep-21 14:23 33.738735 -105.028857 141 9052ft 294kts
17-Sep-21 14:24 33.675601 -104.964379 141 8987ft 300kts
17-Sep-21 14:25 33.611676 -104.899249 142 8918ft 303kts
17-Sep-21 14:26 33.546302 -104.832820 142 8039ft 312kts
17-Sep-21 14:27 33.479913 -104.765310 142 6971ft 314kts
17-Sep-21 14:28 33.419619 -104.704363 146 6770ft 264kts
17-Sep-21 14:29 33.359592 -104.717222 219 6088ft 212kts
17-Sep-21 14:30 33.313628 -104.756111 218 5588ft 189kts
17-Sep-21 14:31 33.270659 -104.779868 200 5592ft 162kts
17-Sep-21 14:32 33.244079 -104.737910 118 5602ft 183kts
17-Sep-21 14:33 33.220186 -104.685609 126 5598ft 181kts
17-Sep-21 14:34 33.210480 -104.629897 54 5585ft 186kts
17-Sep-21 14:35 33.247324 -104.583213 41 4765ft 199kts
17-Sep-21 14:36 33.285385 -104.537956 39 3753ft 187kts
17-Sep-21 14:37 33.303838 -104.515606 54 3639ft 0kts
17-Sep-21 14:38 33.304016 -104.516825 313 3641ft 0kts
17-Sep-21 14:39 33.304942 -104.520120 261 3645ft 28kts
17-Sep-21 14:40 33.306021 -104.529608 268 3654ft 20kts
17-Sep-21 14:41 33.305758 -104.532283 315 3658ft 0kts
17-Sep-21 14:42 33.307820 -104.535603 331 3663ft 20kts
17-Sep-21 14:43 33.308630 -104.535676 229 3663ft 0kts

Navigation Log

Ident Type
Flight plan parsing failed, navigation log unavailable